Time;durP1;ratioP1;P1;durP2;ratioP2;P2;SDS_P1;SDS_P2;PMS_P1;PMS_P2;Temp;Humidity;BMP_temperature;BMP_pressure;BME280_temperature;BME280_humidity;BME280_pressure;Samples;Min_cycle;Max_cycle;Signal;HPM_P1;HPM_P2
2022/04/20 00:02:00;;;;;;;22.45;8.65;;;20.70;51.60;;;;;;5080262;28;20105;-69
2022/04/20 00:04:27;;;;;;;18.55;10.15;;;20.70;51.60;;;;;;5079760;28;20040;-69
2022/04/20 00:06:53;;;;;;;22.63;11.07;;;20.70;51.60;;;;;;5080125;28;20063;-69
2022/04/20 00:09:19;;;;;;;19.10;9.75;;;20.60;51.50;;;;;;5080128;28;20040;-69
2022/04/20 00:11:46;;;;;;;17.60;8.70;;;20.70;51.60;;;;;;5079886;28;20108;-69
2022/04/20 00:14:13;;;;;;;21.45;8.88;;;20.60;51.50;;;;;;5079627;28;20100;-69
2022/04/20 00:16:40;;;;;;;16.20;8.27;;;20.70;51.60;;;;;;5079946;28;20109;-69
2022/04/20 00:19:06;;;;;;;15.13;7.75;;;20.60;51.40;;;;;;5079765;28;20049;-69
2022/04/20 00:21:31;;;;;;;16.67;8.57;;;20.70;51.40;;;;;;5079837;28;20060;-69
2022/04/20 00:23:58;;;;;;;18.38;7.60;;;20.60;51.30;;;;;;5079678;28;20095;-69
2022/04/20 00:26:25;;;;;;;15.57;8.05;;;20.70;51.40;;;;;;5079546;28;20100;-69
2022/04/20 00:28:51;;;;;;;17.88;9.48;;;20.60;51.20;;;;;;5079699;28;20052;-69
2022/04/20 00:31:18;;;;;;;19.15;8.82;;;20.70;51.30;;;;;;5079598;28;20067;-69
2022/04/20 00:33:44;;;;;;;13.88;7.68;;;20.60;51.20;;;;;;5079251;28;20048;-69
2022/04/20 00:36:11;;;;;;;10.75;7.50;;;20.60;51.10;;;;;;5079220;28;20041;-69
2022/04/20 00:38:38;;;;;;;12.30;7.05;;;20.70;51.20;;;;;;5079471;28;20104;-69
2022/04/20 00:41:05;;;;;;;15.48;7.25;;;20.70;51.10;;;;;;5078892;28;20049;-69
2022/04/20 00:43:31;;;;;;;16.55;7.43;;;20.70;51.00;;;;;;5079312;28;20083;-69
2022/04/20 00:46:00;;;;;;;9.75;6.88;;;20.70;51.00;;;;;;5077748;28;20104;-68
2022/04/20 00:48:27;;;;;;;11.02;7.28;;;20.80;50.90;;;;;;5079323;28;20178;-69
2022/04/20 00:50:53;;;;;;;13.73;6.60;;;20.80;50.90;;;;;;5078646;28;20132;-69
2022/04/20 00:53:19;;;;;;;11.18;6.38;;;20.60;50.90;;;;;;5079110;28;20096;-69
2022/04/20 00:55:47;;;;;;;16.10;7.60;;;20.80;51.00;;;;;;5078351;28;20105;-68
2022/04/20 00:58:13;;;;;;;12.88;6.57;;;20.60;50.80;;;;;;5078278;28;20037;-68
2022/04/20 01:00:39;;;;;;;14.70;6.53;;;20.70;50.90;;;;;;5077793;28;20044;-69
2022/04/20 01:03:06;;;;;;;11.77;7.18;;;20.70;50.90;;;;;;5079107;28;20044;-69
2022/04/20 01:05:51;;;;;;;14.18;6.68;;;20.70;50.90;;;;;;5078352;28;20041;-69
2022/04/20 01:08:22;;;;;;;14.60;7.15;;;20.60;50.90;;;;;;5078820;28;20071;-69
2022/04/20 01:11:07;;;;;;;12.93;6.88;;;20.50;50.90;;;;;;5079004;28;20075;-69
2022/04/20 01:13:46;;;;;;;11.45;6.63;;;20.60;51.00;;;;;;5078298;28;20066;-69
2022/04/20 01:16:32;;;;;;;11.57;6.40;;;20.50;50.90;;;;;;5067521;28;20041;-69
2022/04/20 01:19:40;;;;;;;9.13;6.15;;;20.60;50.80;;;;;;5073972;28;20037;-69
2022/04/20 01:22:32;;;;;;;10.73;6.30;;;20.60;50.70;;;;;;5077293;28;20103;-69
2022/04/20 01:25:27;;;;;;;8.25;5.97;;;20.60;50.60;;;;;;5059412;28;20041;-69
2022/04/20 01:28:10;;;;;;;14.18;6.00;;;20.60;50.60;;;;;;5077843;28;20059;-69
2022/04/20 01:31:05;;;;;;;8.30;5.57;;;20.60;50.60;;;;;;5059511;28;20125;-69
2022/04/20 01:33:51;;;;;;;15.43;5.72;;;20.60;50.60;;;;;;5078182;28;20036;-69
2022/04/20 01:36:18;;;;;;;12.52;6.88;;;20.60;50.50;;;;;;5078144;28;20041;-68
2022/04/20 01:38:44;;;;;;;10.93;5.65;;;20.70;50.60;;;;;;5077872;28;20041;-69
2022/04/20 01:41:10;;;;;;;10.98;5.30;;;20.70;50.50;;;;;;5078260;28;20107;-69
2022/04/20 01:43:36;;;;;;;8.80;5.90;;;20.70;50.40;;;;;;5077634;28;20040;-69
2022/04/20 01:46:23;;;;;;;12.13;6.10;;;20.60;50.20;;;;;;5077365;28;20080;-69
2022/04/20 01:49:06;;;;;;;11.23;5.13;;;20.60;50.20;;;;;;5077585;28;20044;-69
2022/04/20 01:51:47;;;;;;;12.68;5.65;;;20.60;50.30;;;;;;5077618;28;20061;-69
2022/04/20 01:54:33;;;;;;;10.98;5.65;;;20.60;50.30;;;;;;5078058;28;20052;-69
2022/04/20 01:57:25;;;;;;;13.17;6.10;;;20.50;50.30;;;;;;5076533;28;20102;-69
2022/04/20 02:00:07;;;;;;;10.75;5.78;;;20.70;50.40;;;;;;5078139;28;20104;-69
2022/04/20 02:03:02;;;;;;;10.88;5.25;;;20.60;50.30;;;;;;5073068;28;20105;-69
2022/04/20 02:05:41;;;;;;;8.32;5.20;;;20.40;50.30;;;;;;5077036;28;20106;-69
2022/04/20 02:08:20;;;;;;;9.20;5.13;;;20.50;50.50;;;;;;5077108;28;20040;-69
2022/04/20 02:11:06;;;;;;;9.85;5.07;;;20.50;50.50;;;;;;5076373;28;20044;-69
2022/04/20 02:13:33;;;;;;;7.28;4.55;;;20.50;50.50;;;;;;5076924;28;20068;-69
2022/04/20 02:16:03;;;;;;;10.90;4.90;;;20.50;50.30;;;;;;5077050;28;20055;-69
2022/04/20 02:19:02;;;;;;;8.75;3.97;;;20.50;50.30;;;;;;5065557;28;20051;-69
2022/04/20 02:21:51;;;;;;;10.38;5.05;;;20.40;50.10;;;;;;5074668;28;20052;-69
2022/04/20 02:24:19;;;;;;;11.00;5.18;;;20.60;50.10;;;;;;5076850;28;20041;-69
2022/04/20 02:26:45;;;;;;;7.90;4.50;;;20.60;50.00;;;;;;5076649;28;20041;-69
2022/04/20 02:29:12;;;;;;;10.55;5.40;;;20.60;50.00;;;;;;5077496;28;20070;-69
2022/04/20 02:31:38;;;;;;;9.05;5.70;;;20.50;50.10;;;;;;5077279;28;20060;-69
2022/04/20 02:34:04;;;;;;;10.60;5.43;;;20.60;50.10;;;;;;5077376;28;20037;-69
2022/04/20 02:36:31;;;;;;;9.70;6.03;;;20.60;50.10;;;;;;5076670;28;20063;-69
2022/04/20 02:38:57;;;;;;;11.23;6.20;;;20.50;50.00;;;;;;5076982;28;20041;-69
2022/04/20 02:41:24;;;;;;;10.35;6.00;;;20.60;50.00;;;;;;5077091;28;20075;-69
2022/04/20 02:43:50;;;;;;;12.50;5.90;;;20.60;50.00;;;;;;5077184;28;20041;-69
2022/04/20 02:46:16;;;;;;;10.55;6.25;;;20.60;50.00;;;;;;5076257;28;20112;-69
2022/04/20 02:48:43;;;;;;;10.30;6.35;;;20.50;50.00;;;;;;5076929;28;20048;-69
2022/04/20 02:51:09;;;;;;;10.30;5.30;;;20.60;50.00;;;;;;5077022;28;20076;-69
2022/04/20 02:53:35;;;;;;;10.88;5.85;;;20.60;50.10;;;;;;5075431;28;20048;-69
2022/04/20 02:56:02;;;;;;;14.85;5.28;;;20.50;50.20;;;;;;5076216;28;20091;-69
2022/04/20 02:58:29;;;;;;;11.80;6.18;;;20.50;50.20;;;;;;5076207;28;20036;-69
2022/04/20 03:00:58;;;;;;;11.20;5.22;;;20.50;50.10;;;;;;5076107;28;20036;-69
2022/04/20 03:03:29;;;;;;;10.02;4.75;;;20.40;50.00;;;;;;5076271;28;20049;-69
2022/04/20 03:06:01;;;;;;;10.43;5.35;;;20.50;50.10;;;;;;5076235;28;20057;-69
2022/04/20 03:08:28;;;;;;;7.47;5.22;;;20.50;50.20;;;;;;5075781;28;20063;-69
2022/04/20 03:10:56;;;;;;;5.50;4.30;;;20.50;50.10;;;;;;5075939;28;20048;-69
2022/04/20 03:13:24;;;;;;;8.35;4.70;;;20.40;50.20;;;;;;5076085;28;20091;-69
2022/04/20 03:15:51;;;;;;;7.10;4.65;;;20.40;50.10;;;;;;5075394;28;20032;-69
2022/04/20 03:18:17;;;;;;;8.27;4.55;;;20.40;50.00;;;;;;5076152;28;20033;-69
2022/04/20 03:20:43;;;;;;;8.93;5.88;;;20.50;50.00;;;;;;5075780;28;20044;-69
2022/04/20 03:23:14;;;;;;;8.82;5.00;;;20.50;50.00;;;;;;5076477;28;20041;-69
2022/04/20 03:25:41;;;;;;;7.18;4.20;;;20.60;50.00;;;;;;5075773;28;20055;-69
2022/04/20 03:28:27;;;;;;;7.25;4.30;;;20.40;49.90;;;;;;5076172;28;20037;-69
2022/04/20 03:30:54;;;;;;;9.48;4.95;;;20.40;49.90;;;;;;5075897;28;20109;-69
2022/04/20 03:33:20;;;;;;;7.50;4.72;;;20.40;49.90;;;;;;5076470;28;20100;-68
2022/04/20 03:35:46;;;;;;;9.50;4.32;;;20.40;49.90;;;;;;5076242;28;20033;-69
2022/04/20 03:38:12;;;;;;;7.82;5.15;;;20.40;49.80;;;;;;5076309;28;20041;-69
2022/04/20 03:40:38;;;;;;;8.90;4.55;;;20.40;49.70;;;;;;5076239;28;20036;-69
2022/04/20 03:43:04;;;;;;;8.02;4.90;;;20.40;49.60;;;;;;5076378;28;20068;-68
2022/04/20 03:45:31;;;;;;;8.10;5.40;;;20.50;49.70;;;;;;5076030;28;20110;-69
2022/04/20 03:47:57;;;;;;;9.80;4.63;;;20.60;49.80;;;;;;5076291;28;20044;-69
2022/04/20 03:50:24;;;;;;;12.48;5.45;;;20.70;49.50;;;;;;5076322;28;20041;-69
2022/04/20 03:52:51;;;;;;;12.60;5.32;;;20.90;49.10;;;;;;5075688;28;20040;-69
2022/04/20 03:55:17;;;;;;;11.98;5.55;;;20.70;49.20;;;;;;5075702;28;20036;-69
2022/04/20 03:57:43;;;;;;;17.58;6.50;;;20.80;49.20;;;;;;5075402;28;20053;-69
2022/04/20 04:00:12;;;;;;;12.68;6.85;;;20.90;49.10;;;;;;5075650;28;20051;-69
2022/04/20 04:02:52;;;;;;;13.20;6.75;;;21.00;49.10;;;;;;5074653;28;20045;-69
2022/04/20 04:05:29;;;;;;;9.65;6.03;;;21.00;48.90;;;;;;5074876;28;20100;-69
2022/04/20 04:08:05;;;;;;;12.57;5.50;;;20.90;46.30;;;;;;5074598;28;20033;-68
2022/04/20 04:10:34;;;;;;;8.60;5.43;;;21.10;46.90;;;;;;5074353;28;20037;-68
2022/04/20 04:13:01;;;;;;;11.65;6.13;;;21.40;56.40;;;;;;5074809;28;20037;-68
2022/04/20 04:15:28;;;;;;;12.40;6.57;;;21.50;59.70;;;;;;5075510;28;20051;-68
2022/04/20 04:17:58;;;;;;;14.77;6.93;;;21.50;54.50;;;;;;5073998;28;20109;-68
2022/04/20 04:20:28;;;;;;;14.47;6.13;;;21.50;53.60;;;;;;5074433;28;20045;-70
2022/04/20 04:22:55;;;;;;;13.75;5.53;;;21.50;53.60;;;;;;5074624;28;20043;-69
2022/04/20 04:25:36;;;;;;;15.57;5.90;;;21.50;52.70;;;;;;5074533;28;20053;-70
2022/04/20 04:28:03;;;;;;;11.40;5.93;;;21.50;51.20;;;;;;5074562;28;20068;-70
2022/04/20 04:30:29;;;;;;;27.80;11.70;;;21.70;50.00;;;;;;5074059;28;20066;-69
2022/04/20 04:33:03;;;;;;;19.77;8.60;;;21.70;48.70;;;;;;5074320;28;20049;-70
2022/04/20 04:35:32;;;;;;;16.15;7.68;;;21.60;47.50;;;;;;5077302;28;20067;-70
2022/04/20 04:37:59;;;;;;;16.08;8.57;;;21.70;46.70;;;;;;5078081;28;20067;-71
2022/04/20 04:40:28;;;;;;;27.88;9.93;;;21.70;45.50;;;;;;5077892;28;20029;-70
2022/04/20 04:42:55;;;;;;;22.33;9.65;;;21.70;45.60;;;;;;5078250;28;20056;-70
2022/04/20 04:51:03;;;;;;;8.55;5.47;;;21.40;44.40;;;;;;5077802;28;20064;-69
2022/04/20 04:53:31;;;;;;;14.10;6.18;;;21.50;45.50;;;;;;5077768;28;20064;-69
2022/04/20 04:55:58;;;;;;;12.63;5.50;;;21.60;43.50;;;;;;5077890;28;20041;-69
2022/04/20 04:58:25;;;;;;;12.55;7.90;;;21.60;41.10;;;;;;5077212;28;20067;-69
2022/04/20 05:00:51;;;;;;;14.70;7.28;;;21.50;40.40;;;;;;5076763;28;20093;-70
2022/04/20 05:03:22;;;;;;;21.58;6.78;;;21.60;43.30;;;;;;5077665;28;20052;-69
2022/04/20 05:05:49;;;;;;;14.63;7.20;;;21.50;43.20;;;;;;5077444;28;20063;-69
2022/04/20 05:08:25;;;;;;;16.38;8.35;;;21.50;45.50;;;;;;5077633;28;20079;-69
2022/04/20 05:10:52;;;;;;;13.88;6.72;;;21.60;41.10;;;;;;5077223;28;20064;-69
2022/04/20 05:13:18;;;;;;;13.13;6.53;;;21.60;40.50;;;;;;5076722;28;20044;-69
2022/04/20 05:15:45;;;;;;;19.08;8.32;;;21.50;40.60;;;;;;5076312;28;20135;-70
2022/04/20 05:18:11;;;;;;;15.35;7.22;;;21.60;41.60;;;;;;5076261;28;20033;-69
2022/04/20 05:20:37;;;;;;;16.83;7.95;;;21.50;41.30;;;;;;5076606;28;20119;-69
2022/04/20 05:23:08;;;;;;;16.42;6.60;;;21.40;41.60;;;;;;5077035;28;20079;-70
2022/04/20 05:25:35;;;;;;;14.32;6.43;;;21.60;41.90;;;;;;5076289;28;20083;-69
2022/04/20 05:28:02;;;;;;;11.10;5.25;;;21.40;41.10;;;;;;5076536;28;20045;-70
2022/04/20 05:30:29;;;;;;;9.95;5.78;;;21.60;40.50;;;;;;5076667;28;20045;-69
2022/04/20 05:32:55;;;;;;;11.30;5.78;;;21.60;39.90;;;;;;5076634;28;20044;-69
2022/04/20 05:35:25;;;;;;;12.95;5.72;;;21.70;39.60;;;;;;5070861;28;20037;-69
2022/04/20 05:43:35;;;;;;;14.73;6.97;;;21.90;50.00;;;;;;5075762;28;20066;-70
2022/04/20 05:46:01;;;;;;;20.88;7.45;;;22.00;51.40;;;;;;5075555;28;20064;-69
2022/04/20 05:48:40;;;;;;;18.30;7.95;;;21.80;54.90;;;;;;5076613;28;20064;-69
2022/04/20 05:51:11;;;;;;;16.15;8.40;;;21.80;54.00;;;;;;5076398;28;20059;-70
2022/04/20 05:53:37;;;;;;;17.15;8.63;;;21.80;53.40;;;;;;5077185;28;20048;-69
2022/04/20 05:56:05;;;;;;;16.77;8.32;;;21.70;51.10;;;;;;5076428;28;20033;-70
2022/04/20 05:58:31;;;;;;;13.85;6.97;;;21.80;53.30;;;;;;5073854;28;20048;-72
2022/04/20 06:00:58;;;;;;;16.05;8.60;;;21.60;53.70;;;;;;5076479;28;20032;-70
2022/04/20 06:03:45;;;;;;;13.88;8.00;;;21.70;53.70;;;;;;5077144;28;20047;-69
2022/04/20 06:06:37;;;;;;;16.00;7.10;;;21.70;54.50;;;;;;5075975;28;20064;-69
2022/04/20 06:09:11;;;;;;;12.02;7.30;;;21.60;54.90;;;;;;5076525;28;20041;-67
2022/04/20 06:11:55;;;;;;;10.43;6.22;;;21.60;55.20;;;;;;5076393;28;20106;-68
2022/04/20 06:14:24;;;;;;;22.48;8.02;;;21.50;55.40;;;;;;5076360;28;20130;-68
2022/04/20 06:17:13;;;;;;;12.80;6.80;;;21.50;55.60;;;;;;5076175;28;20064;-70
2022/04/20 06:19:44;;;;;;;18.70;7.55;;;21.60;55.70;;;;;;5076529;28;20100;-71
2022/04/20 06:22:40;;;;;;;13.02;6.20;;;21.70;55.80;;;;;;5072047;28;20048;-70
2022/04/20 06:25:22;;;;;;;14.07;6.63;;;21.50;56.10;;;;;;5075753;28;20049;-71
2022/04/20 06:28:16;;;;;;;13.68;6.68;;;21.60;56.10;;;;;;5076273;28;20044;-70
2022/04/20 06:31:17;;;;;;;16.30;6.93;;;21.50;56.40;;;;;;5054917;28;20045;-69
2022/04/20 06:33:43;;;;;;;14.95;6.72;;;21.60;56.30;;;;;;5070106;28;20080;-69
2022/04/20 06:36:47;;;;;;;12.25;6.88;;;21.60;56.30;;;;;;5075134;28;20045;-71
2022/04/20 06:39:33;;;;;;;13.68;7.18;;;21.50;56.50;;;;;;5058313;28;20100;-70
2022/04/20 06:42:10;;;;;;;10.48;6.65;;;21.40;56.60;;;;;;5069096;28;20057;-70
2022/04/20 06:44:56;;;;;;;13.25;6.45;;;21.50;56.70;;;;;;5076399;28;20043;-70
2022/04/20 06:47:42;;;;;;;14.02;6.75;;;21.50;56.40;;;;;;5076138;28;20037;-70
2022/04/20 06:50:08;;;;;;;12.23;6.13;;;21.70;56.20;;;;;;5076534;28;20044;-70
2022/04/20 06:58:35;;;;;;;3.55;3.22;;;21.80;56.00;;;;;;5055021;28;20040;-68
2022/04/20 07:01:15;;;;;;;5.70;3.70;;;21.80;53.10;;;;;;5055400;28;20135;-69
2022/04/20 07:04:00;;;;;;;3.65;3.13;;;21.80;54.80;;;;;;5055315;28;20053;-69
2022/04/20 07:06:47;;;;;;;5.10;3.30;;;21.70;54.70;;;;;;5055346;28;20067;-69
2022/04/20 07:09:34;;;;;;;8.90;3.65;;;21.60;55.20;;;;;;5055479;28;20041;-69
2022/04/20 07:12:23;;;;;;;4.88;3.50;;;21.70;57.20;;;;;;5056576;28;20051;-69
2022/04/20 07:14:49;;;;;;;4.13;2.83;;;21.80;58.70;;;;;;5055806;28;20102;-70
2022/04/20 07:17:15;;;;;;;5.22;3.40;;;21.70;58.20;;;;;;5055323;28;20048;-69
2022/04/20 07:19:47;;;;;;;5.90;2.88;;;21.80;56.90;;;;;;5055236;28;20049;-69
2022/04/20 07:22:24;;;;;;;7.18;3.85;;;21.90;56.70;;;;;;5088104;28;20041;-69
2022/04/20 07:25:06;;;;;;;8.35;3.35;;;22.00;56.20;;;;;;5054647;28;20046;-70
2022/04/20 07:27:55;;;;;;;7.80;3.42;;;21.90;55.50;;;;;;5055109;28;20037;-69
2022/04/20 07:30:52;;;;;;;6.20;3.55;;;22.00;55.70;;;;;;5055082;28;20059;-70
2022/04/20 07:33:47;;;;;;;7.78;3.80;;;22.00;55.30;;;;;;5054778;28;20041;-72
2022/04/20 07:36:25;;;;;;;6.30;4.18;;;22.00;54.70;;;;;;5040044;28;20048;-71
2022/04/20 07:38:57;;;;;;;5.45;3.58;;;22.00;47.70;;;;;;5054780;28;20065;-70
2022/04/20 07:41:53;;;;;;;4.68;3.58;;;22.00;52.00;;;;;;5053048;28;20049;-70
2022/04/20 07:44:38;;;;;;;5.15;3.63;;;21.90;51.50;;;;;;5055593;28;20052;-71
2022/04/20 07:47:17;;;;;;;7.40;3.45;;;21.90;51.10;;;;;;5054226;28;20057;-70
2022/04/20 07:53:11;;;;;;;5.15;3.45;;;22.00;50.40;;;;;;5053880;28;20115;-69
2022/04/20 07:55:58;;;;;;;7.72;3.28;;;22.00;50.00;;;;;;5037326;28;20036;-71
2022/04/20 07:58:32;;;;;;;3.63;2.65;;;22.00;49.70;;;;;;5054447;28;20057;-69
2022/04/20 08:01:04;;;;;;;4.95;2.92;;;22.00;42.20;;;;;;5055101;28;20029;-69
2022/04/20 08:03:51;;;;;;;6.28;4.03;;;22.00;47.20;;;;;;5055238;28;20037;-69
2022/04/20 08:06:19;;;;;;;5.35;3.50;;;22.00;46.40;;;;;;5054573;28;20048;-69
2022/04/20 08:08:45;;;;;;;4.45;3.42;;;21.90;47.40;;;;;;5054931;28;20101;-68
2022/04/20 08:11:11;;;;;;;4.57;3.10;;;21.90;47.10;;;;;;5058875;28;20045;-69
2022/04/20 08:16:47;;;;;;;3.45;2.92;;;21.90;45.30;;;;;;5058887;28;20037;-68
2022/04/20 08:19:34;;;;;;;3.70;3.28;;;21.80;47.40;;;;;;5055979;28;20959;-68
2022/04/20 08:22:18;;;;;;;5.53;2.92;;;21.80;48.30;;;;;;5057100;28;20052;-68
2022/04/20 08:24:45;;;;;;;8.52;3.90;;;21.80;48.70;;;;;;5056904;28;20076;-69
2022/04/20 08:27:14;;;;;;;4.32;3.30;;;21.60;48.90;;;;;;5057049;28;20044;-69
2022/04/20 08:29:42;;;;;;;6.43;3.78;;;21.70;49.20;;;;;;5057156;28;20064;-69
2022/04/20 08:32:08;;;;;;;3.05;2.72;;;21.70;48.10;;;;;;5056779;28;20026;-69
2022/04/20 08:34:35;;;;;;;4.35;3.25;;;21.80;49.20;;;;;;5056386;28;20083;-70
2022/04/20 08:37:02;;;;;;;4.45;3.45;;;21.90;49.00;;;;;;5070310;28;20051;-69
2022/04/20 08:39:28;;;;;;;4.93;3.45;;;21.70;49.40;;;;;;5076908;28;20044;-69
2022/04/20 08:41:54;;;;;;;6.00;3.63;;;21.70;49.50;;;;;;5076996;28;20086;-69
2022/04/20 08:44:28;;;;;;;5.45;3.45;;;21.90;49.50;;;;;;5075234;28;20044;-69
2022/04/20 08:46:59;;;;;;;5.22;3.80;;;21.90;49.00;;;;;;5076424;28;20036;-69
2022/04/20 08:49:25;;;;;;;6.63;4.18;;;21.80;49.00;;;;;;5076040;28;20041;-69
2022/04/20 08:54:39;;;;;;;3.03;2.50;;;21.70;49.90;;;;;;5078346;28;20053;-68
2022/04/20 08:57:19;;;;;;;6.47;5.15;;;21.90;44.00;;;;;;5078197;28;20040;-75
2022/04/20 08:59:49;;;;;;;14.63;7.45;;;21.90;48.90;;;;;;5078454;28;20045;-77
2022/04/20 09:02:17;;;;;;;13.13;4.88;;;22.10;48.40;;;;;;5078143;28;20041;-74
2022/04/20 09:04:44;;;;;;;7.35;4.45;;;22.20;46.40;;;;;;5077896;28;20075;-76
2022/04/20 09:07:14;;;;;;;6.00;4.25;;;22.30;44.40;;;;;;5078381;28;20051;-72
2022/04/20 09:09:40;;;;;;;7.65;4.55;;;22.20;43.50;;;;;;5078330;28;20060;-68
2022/04/20 09:12:18;;;;;;;6.28;3.90;;;22.20;43.30;;;;;;5078174;28;20068;-70
2022/04/20 09:14:48;;;;;;;7.50;3.75;;;22.30;44.00;;;;;;5077327;28;20053;-78
2022/04/20 09:17:17;;;;;;;6.45;3.75;;;22.20;44.40;;;;;;5078317;28;20037;-69
2022/04/20 09:19:45;;;;;;;6.00;3.92;;;22.00;44.10;;;;;;5077745;28;20037;-69
2022/04/20 09:22:21;;;;;;;6.05;3.95;;;22.20;43.60;;;;;;5078088;28;20029;-69
2022/04/20 09:25:11;;;;;;;8.40;3.70;;;22.20;44.40;;;;;;5077771;28;20045;-69
2022/04/20 09:27:42;;;;;;;5.57;3.70;;;22.10;42.90;;;;;;5077918;28;20033;-69
2022/04/20 09:30:15;;;;;;;4.85;3.42;;;22.20;42.50;;;;;;5077684;28;20097;-69
2022/04/20 09:32:46;;;;;;;2.90;2.35;;;22.20;43.30;;;;;;5077606;28;20044;-68
2022/04/20 09:35:21;;;;;;;5.60;3.30;;;22.30;46.30;;;;;;5077084;28;20041;-68
2022/04/20 09:38:07;;;;;;;6.30;1.90;;;22.30;43.00;;;;;;5077848;28;20064;-69
2022/04/20 09:40:52;;;;;;;6.85;3.92;;;22.30;47.10;;;;;;5077444;28;20064;-68
2022/04/20 09:43:20;;;;;;;6.60;3.90;;;22.70;41.40;;;;;;5077413;28;20100;-68
2022/04/20 09:46:03;;;;;;;6.95;4.10;;;22.60;38.30;;;;;;5077462;28;20045;-68
2022/04/20 09:51:20;;;;;;;5.22;3.08;;;22.50;35.80;;;;;;5077608;28;20041;-68
2022/04/20 09:53:50;;;;;;;5.97;3.83;;;22.40;36.20;;;;;;5077265;28;20045;-69
2022/04/20 09:56:27;;;;;;;6.00;3.65;;;22.50;38.80;;;;;;5077355;28;20041;-68
2022/04/20 09:59:01;;;;;;;5.65;4.38;;;22.60;50.90;;;;;;5077328;28;20033;-68
2022/04/20 10:01:35;;;;;;;5.53;4.22;;;23.20;52.60;;;;;;5076530;28;20041;-68
2022/04/20 10:04:05;;;;;;;7.50;4.18;;;23.80;49.30;;;;;;5077414;28;20060;-68
2022/04/20 10:06:32;;;;;;;6.97;4.00;;;24.10;42.90;;;;;;5077129;28;20045;-68
2022/04/20 10:08:59;;;;;;;6.82;4.35;;;23.90;44.10;;;;;;5077001;28;20051;-69
2022/04/20 10:11:27;;;;;;;6.38;3.65;;;23.70;45.20;;;;;;5077100;28;20048;-69
2022/04/20 10:16:49;;;;;;;5.38;3.70;;;23.50;45.70;;;;;;5076914;28;20037;-69
2022/04/20 10:19:26;;;;;;;5.40;3.20;;;23.40;45.80;;;;;;5077207;28;20108;-69
2022/04/20 10:21:53;;;;;;;6.78;3.60;;;23.40;45.90;;;;;;5076810;28;20033;-70
2022/04/20 10:24:27;;;;;;;4.65;3.60;;;23.30;46.10;;;;;;5076729;28;20040;-69
2022/04/20 10:26:55;;;;;;;4.78;3.60;;;23.30;46.30;;;;;;5076832;28;20040;-71
2022/04/20 10:29:59;;;;;;;6.20;3.70;;;23.30;46.60;;;;;;5076651;28;20037;-69
2022/04/20 10:32:28;;;;;;;8.65;4.32;;;23.20;47.00;;;;;;5074494;28;20078;-70
2022/04/20 10:35:04;;;;;;;9.93;4.45;;;23.30;47.20;;;;;;5076003;28;20055;-70
2022/04/20 10:38:10;;;;;;;10.00;4.00;;;23.30;47.50;;;;;;5076397;28;20021;-70
2022/04/20 10:41:08;;;;;;;5.35;4.05;;;23.10;47.60;;;;;;5075677;28;20052;-69
2022/04/20 10:43:41;;;;;;;6.25;4.07;;;23.00;47.90;;;;;;5075393;28;20041;-69
2022/04/20 10:46:16;;;;;;;6.97;3.90;;;23.10;48.30;;;;;;5076427;28;20040;-70
2022/04/20 10:49:00;;;;;;;6.22;4.15;;;23.00;48.60;;;;;;5076476;28;20041;-69
2022/04/20 10:51:30;;;;;;;5.05;3.35;;;23.00;48.30;;;;;;5073948;28;20045;-68
2022/04/20 10:54:27;;;;;;;4.20;3.38;;;23.00;47.60;;;;;;5074795;28;20051;-69
2022/04/20 10:57:02;;;;;;;3.63;3.03;;;23.00;48.50;;;;;;5075438;28;20036;-70
2022/04/20 10:59:28;;;;;;;4.82;3.42;;;23.00;48.60;;;;;;5075582;28;20041;-69
2022/04/20 11:02:03;;;;;;;4.00;3.17;;;23.00;48.60;;;;;;5076186;28;20066;-69
2022/04/20 11:04:48;;;;;;;4.78;3.30;;;23.10;48.90;;;;;;5076068;28;20067;-69
2022/04/20 11:07:17;;;;;;;5.63;3.90;;;23.00;49.00;;;;;;5075955;28;20067;-69
2022/04/20 11:09:45;;;;;;;5.70;2.20;;;22.90;48.80;;;;;;5075220;28;20040;-69
2022/04/20 11:21:16;;;;;;;7.75;3.60;;;22.90;49.30;;;;;;5075381;28;20040;-68
2022/04/20 11:24:05;;;;;;;5.53;3.75;;;22.80;49.50;;;;;;5075912;28;20064;-68
2022/04/20 11:26:41;;;;;;;6.88;3.25;;;22.70;49.70;;;;;;5075638;28;20061;-69
2022/04/20 11:29:11;;;;;;;4.38;3.00;;;22.90;50.80;;;;;;5075833;28;20040;-68
2022/04/20 11:31:40;;;;;;;4.82;3.47;;;22.70;50.60;;;;;;5075751;28;20037;-69
2022/04/20 11:34:06;;;;;;;5.45;3.30;;;22.80;49.90;;;;;;5075543;28;20060;-69
2022/04/20 11:36:33;;;;;;;6.43;3.38;;;22.80;51.40;;;;;;5074615;28;20033;-69
2022/04/20 11:39:00;;;;;;;4.32;3.25;;;22.70;50.20;;;;;;5075209;28;20041;-69
2022/04/20 11:41:27;;;;;;;5.93;3.35;;;22.70;50.70;;;;;;5073899;28;20044;-70
2022/04/20 11:43:53;;;;;;;6.40;3.55;;;22.70;50.60;;;;;;5075345;28;20039;-70
2022/04/20 11:46:20;;;;;;;5.60;3.60;;;22.80;50.60;;;;;;5077550;28;20033;-69
2022/04/20 11:48:53;;;;;;;5.75;3.15;;;22.70;50.60;;;;;;5077651;28;20048;-70
2022/04/20 11:51:25;;;;;;;7.53;3.97;;;22.80;50.50;;;;;;5076929;28;20044;-69
2022/04/20 11:53:52;;;;;;;6.07;3.70;;;22.80;50.30;;;;;;5078282;28;20072;-69
2022/04/20 11:56:34;;;;;;;5.72;3.55;;;22.80;45.90;;;;;;5078230;28;20033;-69
2022/04/20 11:59:02;;;;;;;7.68;3.45;;;22.70;49.70;;;;;;5060968;28;20033;-69
2022/04/20 12:01:33;;;;;;;5.35;3.38;;;22.60;50.30;;;;;;5078245;28;20041;-70
2022/04/20 12:04:02;;;;;;;6.07;4.05;;;22.80;50.30;;;;;;5077600;28;20043;-69
2022/04/20 12:06:29;;;;;;;4.55;3.50;;;22.70;50.60;;;;;;5077667;28;20040;-79
2022/04/20 12:08:55;;;;;;;4.07;3.35;;;22.70;46.80;;;;;;5079467;28;20052;-77
2022/04/20 12:11:21;;;;;;;6.82;3.42;;;22.60;48.90;;;;;;5079330;28;20053;-68
2022/04/20 12:13:54;;;;;;;7.70;3.53;;;22.60;47.70;;;;;;5079461;28;20045;-68
2022/04/20 12:16:23;;;;;;;;;;;22.60;49.90;;;;;;5079185;28;20041;-68
2022/04/20 12:18:50;;;;;;;6.07;3.28;;;22.80;49.20;;;;;;5079221;28;19915;-66
2022/04/20 12:21:36;;;;;;;3.08;2.80;;;22.80;48.70;;;;;;5077556;28;20049;-67
2022/04/20 12:24:03;;;;;;;6.65;3.40;;;22.70;47.70;;;;;;5077302;28;20041;-67
2022/04/20 12:26:30;;;;;;;5.47;3.25;;;22.70;48.10;;;;;;5078239;28;20098;-67
2022/04/20 12:29:00;;;;;;;6.15;3.58;;;22.70;41.60;;;;;;5078235;28;20059;-67
2022/04/20 12:31:26;;;;;;;7.53;3.90;;;22.60;47.90;;;;;;5078543;28;20064;-67
2022/04/20 12:34:00;;;;;;;4.78;3.97;;;22.70;42.40;;;;;;5078405;28;20301;-67
2022/04/20 12:36:26;;;;;;;5.53;3.40;;;22.50;43.10;;;;;;5077867;28;20045;-67
2022/04/20 12:38:58;;;;;;;7.57;4.20;;;22.50;47.00;;;;;;5077312;28;20037;-67
2022/04/20 12:42:04;;;;;;;7.20;3.65;;;22.50;47.80;;;;;;5078682;28;20060;-67
2022/04/20 12:44:37;;;;;;;4.85;3.22;;;22.40;44.60;;;;;;5076995;28;20041;-67
2022/04/20 12:47:25;;;;;;;8.02;4.32;;;22.50;47.90;;;;;;5077111;28;20044;-67
2022/04/20 12:50:00;;;;;;;5.22;3.80;;;22.40;44.90;;;;;;5078334;28;20055;-67
2022/04/20 12:52:31;;;;;;;9.23;3.95;;;22.40;47.50;;;;;;5077358;28;20108;-67
2022/04/20 12:55:00;;;;;;;8.65;4.45;;;22.40;47.30;;;;;;5077276;28;20037;-67
2022/04/20 13:03:04;;;;;;;5.25;3.20;;;22.50;49.40;;;;;;5078068;28;20127;-67
2022/04/20 13:05:38;;;;;;;6.65;4.15;;;22.30;49.70;;;;;;5078277;28;20091;-69
2022/04/20 13:08:06;;;;;;;5.72;3.33;;;22.40;49.10;;;;;;5077800;28;20041;-68
2022/04/20 13:10:37;;;;;;;4.45;3.20;;;22.30;50.10;;;;;;5078050;28;20033;-68
2022/04/20 13:13:04;;;;;;;5.18;3.53;;;22.40;48.80;;;;;;5077994;28;20064;-67
2022/04/20 13:15:38;;;;;;;6.50;3.53;;;22.20;49.70;;;;;;5077006;28;20037;-67
2022/04/20 13:18:05;;;;;;;4.30;3.30;;;22.40;50.90;;;;;;5076930;28;20037;-67
2022/04/20 13:20:31;;;;;;;6.22;3.38;;;22.30;50.90;;;;;;5077666;28;20045;-67
2022/04/20 13:23:01;;;;;;;5.35;3.47;;;22.30;50.50;;;;;;5077913;28;20037;-67
2022/04/20 13:28:12;;;;;;;5.78;3.17;;;22.40;50.70;;;;;;5077810;28;20049;-67
2022/04/20 13:30:39;;;;;;;8.38;3.50;;;22.30;48.80;;;;;;5078013;28;20049;-68
2022/04/20 13:33:10;;;;;;;6.30;3.38;;;22.20;49.60;;;;;;5077856;28;20099;-68
2022/04/20 13:35:38;;;;;;;4.50;3.55;;;22.20;50.30;;;;;;5076471;28;20071;-67
2022/04/20 13:38:07;;;;;;;4.60;3.83;;;22.10;50.10;;;;;;5076743;28;20093;-68
2022/04/20 13:40:36;;;;;;;6.85;3.63;;;22.20;50.50;;;;;;5077036;28;20067;-68
2022/04/20 13:43:03;;;;;;;4.22;3.45;;;22.20;50.50;;;;;;5077478;28;20049;-68
2022/04/20 13:45:29;;;;;;;4.18;3.60;;;22.10;50.80;;;;;;5077210;28;20049;-68
2022/04/20 13:47:55;;;;;;;5.90;3.60;;;22.10;51.40;;;;;;5077300;28;20052;-68
2022/04/20 13:50:21;;;;;;;4.75;3.55;;;22.10;51.70;;;;;;5077433;28;20045;-68
2022/04/20 13:52:47;;;;;;;5.93;3.90;;;22.00;52.10;;;;;;5076495;28;20041;-68
2022/04/20 13:55:13;;;;;;;5.13;3.70;;;22.10;52.20;;;;;;5076267;28;20037;-67
2022/04/20 13:57:39;;;;;;;5.55;2.70;;;22.00;52.40;;;;;;5077395;28;20100;-67
2022/04/20 14:00:12;;;;;;;6.65;2.33;;;22.20;55.40;;;;;;5076586;28;20041;-68
2022/04/20 14:02:39;;;;;;;5.53;2.55;;;22.80;52.60;;;;;;5076883;28;20096;-68